sensor_id;sensor_type;location;lat;lon;timestamp;P1;durP1;ratioP1;P2;durP2;ratioP2
14611;SDS011;7392;52.078;11.650;2023-10-13T00:00:28;4.20;;;3.80;;
14611;SDS011;7392;52.078;11.650;2023-10-13T00:03:02;4.27;;;3.97;;
14611;SDS011;7392;52.078;11.650;2023-10-13T00:05:32;6.93;;;5.40;;
14611;SDS011;7392;52.078;11.650;2023-10-13T00:08:01;4.80;;;4.37;;
14611;SDS011;7392;52.078;11.650;2023-10-13T00:10:30;4.80;;;4.30;;
14611;SDS011;7392;52.078;11.650;2023-10-13T00:13:00;5.20;;;4.70;;
14611;SDS011;7392;52.078;11.650;2023-10-13T00:15:38;5.77;;;4.87;;
14611;SDS011;7392;52.078;11.650;2023-10-13T00:18:13;5.80;;;5.03;;
14611;SDS011;7392;52.078;11.650;2023-10-13T00:20:41;4.33;;;3.93;;
14611;SDS011;7392;52.078;11.650;2023-10-13T00:23:15;6.13;;;5.17;;
14611;SDS011;7392;52.078;11.650;2023-10-13T00:25:47;7.83;;;5.43;;
14611;SDS011;7392;52.078;11.650;2023-10-13T00:28:23;5.23;;;4.73;;
14611;SDS011;7392;52.078;11.650;2023-10-13T00:30:53;4.40;;;4.00;;
14611;SDS011;7392;52.078;11.650;2023-10-13T00:33:29;4.43;;;3.97;;
14611;SDS011;7392;52.078;11.650;2023-10-13T00:35:59;5.60;;;5.10;;
14611;SDS011;7392;52.078;11.650;2023-10-13T00:38:27;6.07;;;4.90;;
14611;SDS011;7392;52.078;11.650;2023-10-13T00:40:55;6.53;;;5.60;;
14611;SDS011;7392;52.078;11.650;2023-10-13T00:43:29;5.20;;;4.70;;
14611;SDS011;7392;52.078;11.650;2023-10-13T00:46:01;5.20;;;4.37;;
14611;SDS011;7392;52.078;11.650;2023-10-13T00:48:38;4.50;;;4.07;;
14611;SDS011;7392;52.078;11.650;2023-10-13T00:51:17;6.00;;;4.80;;
14611;SDS011;7392;52.078;11.650;2023-10-13T00:53:49;5.13;;;4.67;;
14611;SDS011;7392;52.078;11.650;2023-10-13T00:56:17;4.57;;;4.17;;
14611;SDS011;7392;52.078;11.650;2023-10-13T00:58:45;4.53;;;4.13;;
14611;SDS011;7392;52.078;11.650;2023-10-13T01:01:13;5.33;;;4.70;;
14611;SDS011;7392;52.078;11.650;2023-10-13T01:03:50;4.37;;;4.03;;
14611;SDS011;7392;52.078;11.650;2023-10-13T01:06:22;4.10;;;3.70;;
14611;SDS011;7392;52.078;11.650;2023-10-13T01:08:57;4.27;;;3.87;;
14611;SDS011;7392;52.078;11.650;2023-10-13T01:11:37;3.77;;;3.47;;
14611;SDS011;7392;52.078;11.650;2023-10-13T01:14:04;4.50;;;4.10;;
14611;SDS011;7392;52.078;11.650;2023-10-13T01:16:32;4.20;;;3.80;;
14611;SDS011;7392;52.078;11.650;2023-10-13T01:19:01;3.70;;;3.40;;
14611;SDS011;7392;52.078;11.650;2023-10-13T01:21:31;4.90;;;4.40;;
14611;SDS011;7392;52.078;11.650;2023-10-13T01:24:01;5.37;;;3.87;;
14611;SDS011;7392;52.078;11.650;2023-10-13T01:26:34;4.23;;;3.83;;
14611;SDS011;7392;52.078;11.650;2023-10-13T01:29:05;5.03;;;4.23;;
14611;SDS011;7392;52.078;11.650;2023-10-13T01:31:39;5.50;;;4.83;;
14611;SDS011;7392;52.078;11.650;2023-10-13T01:34:13;4.87;;;4.37;;
14611;SDS011;7392;52.078;11.650;2023-10-13T01:36:46;6.00;;;4.90;;
14611;SDS011;7392;52.078;11.650;2023-10-13T01:39:15;4.93;;;4.43;;
14611;SDS011;7392;52.078;11.650;2023-10-13T01:41:43;5.70;;;4.43;;
14611;SDS011;7392;52.078;11.650;2023-10-13T01:44:10;5.07;;;4.20;;
14611;SDS011;7392;52.078;11.650;2023-10-13T01:46:39;4.07;;;3.67;;
14611;SDS011;7392;52.078;11.650;2023-10-13T01:49:05;4.30;;;3.90;;
14611;SDS011;7392;52.078;11.650;2023-10-13T01:51:34;4.70;;;4.20;;
14611;SDS011;7392;52.078;11.650;2023-10-13T01:54:02;5.73;;;4.50;;
14611;SDS011;7392;52.078;11.650;2023-10-13T01:56:31;5.97;;;5.20;;
14611;SDS011;7392;52.078;11.650;2023-10-13T01:58:58;5.77;;;5.00;;
14611;SDS011;7392;52.078;11.650;2023-10-13T02:01:32;6.10;;;5.40;;
14611;SDS011;7392;52.078;11.650;2023-10-13T02:04:01;5.47;;;4.97;;
14611;SDS011;7392;52.078;11.650;2023-10-13T02:06:29;6.50;;;5.30;;
14611;SDS011;7392;52.078;11.650;2023-10-13T02:09:01;8.00;;;6.27;;
14611;SDS011;7392;52.078;11.650;2023-10-13T02:11:43;7.33;;;6.63;;
14611;SDS011;7392;52.078;11.650;2023-10-13T02:14:12;6.40;;;5.80;;
14611;SDS011;7392;52.078;11.650;2023-10-13T02:16:43;6.70;;;6.00;;
14611;SDS011;7392;52.078;11.650;2023-10-13T02:19:13;5.43;;;4.77;;
14611;SDS011;7392;52.078;11.650;2023-10-13T02:21:44;6.40;;;5.70;;
14611;SDS011;7392;52.078;11.650;2023-10-13T02:24:13;5.43;;;4.80;;
14611;SDS011;7392;52.078;11.650;2023-10-13T02:26:46;5.80;;;5.20;;
14611;SDS011;7392;52.078;11.650;2023-10-13T02:29:17;8.63;;;6.03;;
14611;SDS011;7392;52.078;11.650;2023-10-13T02:31:45;5.67;;;5.17;;
14611;SDS011;7392;52.078;11.650;2023-10-13T02:34:21;6.93;;;5.13;;
14611;SDS011;7392;52.078;11.650;2023-10-13T02:36:49;5.37;;;4.87;;
14611;SDS011;7392;52.078;11.650;2023-10-13T02:39:19;6.23;;;5.60;;
14611;SDS011;7392;52.078;11.650;2023-10-13T02:41:54;7.87;;;6.53;;
14611;SDS011;7392;52.078;11.650;2023-10-13T02:44:22;6.93;;;5.40;;
14611;SDS011;7392;52.078;11.650;2023-10-13T02:46:54;8.73;;;6.40;;
14611;SDS011;7392;52.078;11.650;2023-10-13T02:49:23;8.53;;;7.63;;
14611;SDS011;7392;52.078;11.650;2023-10-13T02:51:53;8.27;;;7.33;;
14611;SDS011;7392;52.078;11.650;2023-10-13T02:54:22;8.47;;;7.57;;
14611;SDS011;7392;52.078;11.650;2023-10-13T02:56:57;7.80;;;6.97;;
14611;SDS011;7392;52.078;11.650;2023-10-13T02:59:30;6.50;;;5.90;;
14611;SDS011;7392;52.078;11.650;2023-10-13T03:02:06;7.13;;;5.50;;
14611;SDS011;7392;52.078;11.650;2023-10-13T03:04:49;5.90;;;5.27;;
14611;SDS011;7392;52.078;11.650;2023-10-13T03:07:16;6.97;;;6.13;;
14611;SDS011;7392;52.078;11.650;2023-10-13T03:09:50;6.47;;;5.30;;
14611;SDS011;7392;52.078;11.650;2023-10-13T03:12:21;7.40;;;6.33;;
14611;SDS011;7392;52.078;11.650;2023-10-13T03:15:02;7.70;;;6.90;;
14611;SDS011;7392;52.078;11.650;2023-10-13T03:17:39;7.50;;;6.40;;
14611;SDS011;7392;52.078;11.650;2023-10-13T03:20:14;7.33;;;6.63;;
14611;SDS011;7392;52.078;11.650;2023-10-13T03:22:52;6.50;;;5.90;;
14611;SDS011;7392;52.078;11.650;2023-10-13T03:25:19;6.23;;;5.63;;
14611;SDS011;7392;52.078;11.650;2023-10-13T03:27:53;6.00;;;5.40;;
14611;SDS011;7392;52.078;11.650;2023-10-13T03:30:34;6.40;;;5.70;;
14611;SDS011;7392;52.078;11.650;2023-10-13T03:33:11;7.23;;;6.50;;
14611;SDS011;7392;52.078;11.650;2023-10-13T03:36:03;10.20;;;7.13;;
14611;SDS011;7392;52.078;11.650;2023-10-13T03:41:58;12.30;;;8.27;;
14611;SDS011;7392;52.078;11.650;2023-10-13T03:44:36;9.77;;;7.73;;
14611;SDS011;7392;52.078;11.650;2023-10-13T03:47:20;8.00;;;6.10;;
14611;SDS011;7392;52.078;11.650;2023-10-13T03:49:59;7.33;;;6.20;;
14611;SDS011;7392;52.078;11.650;2023-10-13T03:52:44;7.30;;;6.60;;
14611;SDS011;7392;52.078;11.650;2023-10-13T03:55:19;7.43;;;5.80;;
14611;SDS011;7392;52.078;11.650;2023-10-13T03:58:08;7.73;;;6.90;;
14611;SDS011;7392;52.078;11.650;2023-10-13T04:00:46;9.47;;;7.47;;
14611;SDS011;7392;52.078;11.650;2023-10-13T04:03:15;7.73;;;7.00;;
14611;SDS011;7392;52.078;11.650;2023-10-13T04:06:04;9.13;;;6.90;;
14611;SDS011;7392;52.078;11.650;2023-10-13T04:08:34;11.63;;;8.20;;
14611;SDS011;7392;52.078;11.650;2023-10-13T04:11:41;8.60;;;7.53;;
14611;SDS011;7392;52.078;11.650;2023-10-13T04:14:23;8.03;;;6.87;;
14611;SDS011;7392;52.078;11.650;2023-10-13T04:17:12;7.43;;;5.83;;
14611;SDS011;7392;52.078;11.650;2023-10-13T04:19:41;7.13;;;6.17;;
14611;SDS011;7392;52.078;11.650;2023-10-13T04:22:41;7.73;;;6.20;;
14611;SDS011;7392;52.078;11.650;2023-10-13T04:25:28;7.03;;;6.40;;
14611;SDS011;7392;52.078;11.650;2023-10-13T04:28:07;7.57;;;6.07;;
14611;SDS011;7392;52.078;11.650;2023-10-13T04:31:01;6.20;;;5.60;;
14611;SDS011;7392;52.078;11.650;2023-10-13T04:33:40;6.70;;;6.00;;
14611;SDS011;7392;52.078;11.650;2023-10-13T04:36:22;5.03;;;4.53;;
14611;SDS011;7392;52.078;11.650;2023-10-13T04:39:14;5.40;;;4.67;;
14611;SDS011;7392;52.078;11.650;2023-10-13T04:42:34;10.33;;;6.53;;
14611;SDS011;7392;52.078;11.650;2023-10-13T04:45:17;9.07;;;7.27;;
14611;SDS011;7392;52.078;11.650;2023-10-13T04:48:03;11.10;;;8.47;;
14611;SDS011;7392;52.078;11.650;2023-10-13T04:50:46;11.67;;;8.20;;
14611;SDS011;7392;52.078;11.650;2023-10-13T04:53:14;9.70;;;7.90;;
14611;SDS011;7392;52.078;11.650;2023-10-13T04:56:00;7.83;;;6.53;;
14611;SDS011;7392;52.078;11.650;2023-10-13T04:58:34;6.07;;;5.30;;
14611;SDS011;7392;52.078;11.650;2023-10-13T05:01:28;6.87;;;5.20;;
14611;SDS011;7392;52.078;11.650;2023-10-13T05:04:10;5.90;;;5.30;;
14611;SDS011;7392;52.078;11.650;2023-10-13T05:06:58;5.50;;;4.90;;
14611;SDS011;7392;52.078;11.650;2023-10-13T05:09:44;5.50;;;4.93;;
14611;SDS011;7392;52.078;11.650;2023-10-13T05:12:29;5.00;;;4.50;;
14611;SDS011;7392;52.078;11.650;2023-10-13T05:15:15;4.37;;;3.97;;
14611;SDS011;7392;52.078;11.650;2023-10-13T05:18:00;4.40;;;4.00;;
14611;SDS011;7392;52.078;11.650;2023-10-13T05:20:46;4.23;;;3.83;;
14611;SDS011;7392;52.078;11.650;2023-10-13T05:23:32;4.70;;;4.17;;
14611;SDS011;7392;52.078;11.650;2023-10-13T05:26:20;5.60;;;5.10;;
14611;SDS011;7392;52.078;11.650;2023-10-13T05:29:05;5.60;;;5.10;;
14611;SDS011;7392;52.078;11.650;2023-10-13T05:31:54;5.23;;;4.70;;
14611;SDS011;7392;52.078;11.650;2023-10-13T05:34:40;5.40;;;4.90;;
14611;SDS011;7392;52.078;11.650;2023-10-13T05:37:28;4.83;;;4.43;;
14611;SDS011;7392;52.078;11.650;2023-10-13T05:40:28;5.93;;;4.50;;
14611;SDS011;7392;52.078;11.650;2023-10-13T05:43:16;4.10;;;3.77;;
14611;SDS011;7392;52.078;11.650;2023-10-13T05:46:03;4.53;;;4.13;;
14611;SDS011;7392;52.078;11.650;2023-10-13T05:48:58;4.40;;;4.00;;
14611;SDS011;7392;52.078;11.650;2023-10-13T05:51:58;5.27;;;4.77;;
14611;SDS011;7392;52.078;11.650;2023-10-13T05:54:37;5.50;;;4.90;;
14611;SDS011;7392;52.078;11.650;2023-10-13T05:57:27;5.97;;;5.27;;
14611;SDS011;7392;52.078;11.650;2023-10-13T06:00:16;5.30;;;4.87;;
14611;SDS011;7392;52.078;11.650;2023-10-13T06:03:12;7.90;;;5.77;;
14611;SDS011;7392;52.078;11.650;2023-10-13T06:06:01;7.23;;;6.43;;
14611;SDS011;7392;52.078;11.650;2023-10-13T06:08:52;10.70;;;7.63;;
14611;SDS011;7392;52.078;11.650;2023-10-13T06:11:43;7.97;;;7.17;;
14611;SDS011;7392;52.078;11.650;2023-10-13T06:14:44;10.53;;;8.73;;
14611;SDS011;7392;52.078;11.650;2023-10-13T06:17:30;12.73;;;9.33;;
14611;SDS011;7392;52.078;11.650;2023-10-13T06:20:16;10.30;;;8.53;;
14611;SDS011;7392;52.078;11.650;2023-10-13T06:23:02;14.10;;;8.43;;
14611;SDS011;7392;52.078;11.650;2023-10-13T06:25:50;9.43;;;8.00;;
14611;SDS011;7392;52.078;11.650;2023-10-13T06:28:36;11.10;;;7.80;;
14611;SDS011;7392;52.078;11.650;2023-10-13T06:31:13;11.47;;;8.00;;
14611;SDS011;7392;52.078;11.650;2023-10-13T06:33:49;13.53;;;8.23;;
14611;SDS011;7392;52.078;11.650;2023-10-13T06:36:17;11.97;;;8.40;;
14611;SDS011;7392;52.078;11.650;2023-10-13T06:38:45;10.97;;;8.27;;
14611;SDS011;7392;52.078;11.650;2023-10-13T06:41:22;10.77;;;8.33;;
14611;SDS011;7392;52.078;11.650;2023-10-13T06:44:02;11.13;;;8.13;;
14611;SDS011;7392;52.078;11.650;2023-10-13T06:46:33;11.73;;;7.40;;
14611;SDS011;7392;52.078;11.650;2023-10-13T06:49:01;12.50;;;9.27;;
14611;SDS011;7392;52.078;11.650;2023-10-13T06:51:29;9.70;;;7.23;;
14611;SDS011;7392;52.078;11.650;2023-10-13T06:54:05;10.83;;;7.80;;
14611;SDS011;7392;52.078;11.650;2023-10-13T06:56:37;9.87;;;7.57;;
14611;SDS011;7392;52.078;11.650;2023-10-13T06:59:06;9.40;;;7.73;;
14611;SDS011;7392;52.078;11.650;2023-10-13T07:01:35;9.60;;;7.60;;
14611;SDS011;7392;52.078;11.650;2023-10-13T07:04:07;10.23;;;7.90;;
14611;SDS011;7392;52.078;11.650;2023-10-13T07:06:40;11.73;;;8.43;;
14611;SDS011;7392;52.078;11.650;2023-10-13T07:09:14;12.40;;;9.37;;
14611;SDS011;7392;52.078;11.650;2023-10-13T07:12:06;11.07;;;7.93;;
14611;SDS011;7392;52.078;11.650;2023-10-13T07:14:46;12.90;;;9.17;;
14611;SDS011;7392;52.078;11.650;2023-10-13T07:17:20;10.63;;;8.70;;
14611;SDS011;7392;52.078;11.650;2023-10-13T07:19:51;10.03;;;7.70;;
14611;SDS011;7392;52.078;11.650;2023-10-13T07:22:32;10.23;;;7.60;;
14611;SDS011;7392;52.078;11.650;2023-10-13T07:25:06;9.00;;;7.30;;
14611;SDS011;7392;52.078;11.650;2023-10-13T07:27:35;9.70;;;8.20;;
14611;SDS011;7392;52.078;11.650;2023-10-13T07:30:02;10.27;;;8.10;;
14611;SDS011;7392;52.078;11.650;2023-10-13T07:32:41;9.33;;;7.67;;
14611;SDS011;7392;52.078;11.650;2023-10-13T07:35:14;9.87;;;8.07;;
14611;SDS011;7392;52.078;11.650;2023-10-13T07:37:46;11.17;;;7.73;;
14611;SDS011;7392;52.078;11.650;2023-10-13T07:40:15;10.37;;;7.13;;
14611;SDS011;7392;52.078;11.650;2023-10-13T07:43:06;9.03;;;7.20;;
14611;SDS011;7392;52.078;11.650;2023-10-13T07:45:37;12.93;;;7.50;;
14611;SDS011;7392;52.078;11.650;2023-10-13T07:48:09;10.00;;;7.20;;
14611;SDS011;7392;52.078;11.650;2023-10-13T07:50:45;7.20;;;6.50;;
14611;SDS011;7392;52.078;11.650;2023-10-13T07:53:13;7.43;;;6.13;;
14611;SDS011;7392;52.078;11.650;2023-10-13T07:55:49;9.13;;;6.53;;
14611;SDS011;7392;52.078;11.650;2023-10-13T07:58:22;10.00;;;6.77;;
14611;SDS011;7392;52.078;11.650;2023-10-13T08:00:51;10.33;;;7.17;;
14611;SDS011;7392;52.078;11.650;2023-10-13T08:03:34;8.27;;;6.80;;
14611;SDS011;7392;52.078;11.650;2023-10-13T08:06:10;10.97;;;6.97;;
14611;SDS011;7392;52.078;11.650;2023-10-13T08:08:53;8.97;;;7.47;;
14611;SDS011;7392;52.078;11.650;2023-10-13T08:11:21;9.90;;;6.53;;
14611;SDS011;7392;52.078;11.650;2023-10-13T08:13:54;8.17;;;6.50;;
14611;SDS011;7392;52.078;11.650;2023-10-13T08:16:40;8.70;;;6.33;;
14611;SDS011;7392;52.078;11.650;2023-10-13T08:19:22;10.17;;;6.73;;
14611;SDS011;7392;52.078;11.650;2023-10-13T08:21:55;8.80;;;5.23;;
14611;SDS011;7392;52.078;11.650;2023-10-13T08:24:48;13.53;;;6.23;;
14611;SDS011;7392;52.078;11.650;2023-10-13T08:27:22;7.73;;;5.50;;
14611;SDS011;7392;52.078;11.650;2023-10-13T08:30:15;10.33;;;5.73;;
14611;SDS011;7392;52.078;11.650;2023-10-13T08:32:56;8.00;;;5.33;;
14611;SDS011;7392;52.078;11.650;2023-10-13T08:35:27;6.47;;;5.20;;
14611;SDS011;7392;52.078;11.650;2023-10-13T08:38:10;7.20;;;5.37;;
14611;SDS011;7392;52.078;11.650;2023-10-13T08:40:57;9.43;;;5.90;;
14611;SDS011;7392;52.078;11.650;2023-10-13T08:43:44;6.13;;;4.80;;
14611;SDS011;7392;52.078;11.650;2023-10-13T08:46:18;7.53;;;4.93;;
14611;SDS011;7392;52.078;11.650;2023-10-13T08:48:57;6.87;;;5.23;;
14611;SDS011;7392;52.078;11.650;2023-10-13T08:51:43;6.83;;;5.00;;
14611;SDS011;7392;52.078;11.650;2023-10-13T08:54:14;7.53;;;5.50;;
14611;SDS011;7392;52.078;11.650;2023-10-13T08:57:01;8.83;;;5.20;;
14611;SDS011;7392;52.078;11.650;2023-10-13T08:59:59;7.10;;;5.03;;
14611;SDS011;7392;52.078;11.650;2023-10-13T09:02:41;6.10;;;4.70;;
14611;SDS011;7392;52.078;11.650;2023-10-13T09:05:47;7.47;;;4.47;;
14611;SDS011;7392;52.078;11.650;2023-10-13T09:08:34;5.70;;;5.10;;
14611;SDS011;7392;52.078;11.650;2023-10-13T09:11:31;7.90;;;5.13;;
14611;SDS011;7392;52.078;11.650;2023-10-13T09:14:15;9.00;;;4.90;;
14611;SDS011;7392;52.078;11.650;2023-10-13T09:17:04;8.00;;;4.73;;
14611;SDS011;7392;52.078;11.650;2023-10-13T09:19:45;7.07;;;4.87;;
14611;SDS011;7392;52.078;11.650;2023-10-13T09:22:22;8.63;;;4.90;;
14611;SDS011;7392;52.078;11.650;2023-10-13T09:24:57;9.30;;;5.40;;
14611;SDS011;7392;52.078;11.650;2023-10-13T09:27:30;8.93;;;5.40;;
14611;SDS011;7392;52.078;11.650;2023-10-13T09:29:59;7.93;;;5.20;;
14611;SDS011;7392;52.078;11.650;2023-10-13T09:32:34;7.43;;;4.90;;
14611;SDS011;7392;52.078;11.650;2023-10-13T09:35:14;5.93;;;4.43;;
14611;SDS011;7392;52.078;11.650;2023-10-13T09:37:45;5.93;;;4.73;;
14611;SDS011;7392;52.078;11.650;2023-10-13T09:40:17;6.37;;;4.60;;
14611;SDS011;7392;52.078;11.650;2023-10-13T09:43:00;6.63;;;4.47;;
14611;SDS011;7392;52.078;11.650;2023-10-13T09:45:34;7.63;;;4.53;;
14611;SDS011;7392;52.078;11.650;2023-10-13T09:48:07;12.67;;;4.80;;
14611;SDS011;7392;52.078;11.650;2023-10-13T09:50:43;6.87;;;4.50;;
14611;SDS011;7392;52.078;11.650;2023-10-13T09:53:15;6.37;;;4.23;;
14611;SDS011;7392;52.078;11.650;2023-10-13T09:55:46;8.83;;;4.63;;
14611;SDS011;7392;52.078;11.650;2023-10-13T09:58:16;7.97;;;4.50;;
14611;SDS011;7392;52.078;11.650;2023-10-13T10:00:46;8.77;;;4.80;;
14611;SDS011;7392;52.078;11.650;2023-10-13T10:03:24;6.27;;;3.90;;
14611;SDS011;7392;52.078;11.650;2023-10-13T10:06:06;8.07;;;4.40;;
14611;SDS011;7392;52.078;11.650;2023-10-13T10:08:43;6.03;;;4.53;;
14611;SDS011;7392;52.078;11.650;2023-10-13T10:11:37;7.03;;;4.47;;
14611;SDS011;7392;52.078;11.650;2023-10-13T10:17:54;7.30;;;4.90;;
14611;SDS011;7392;52.078;11.650;2023-10-13T10:20:27;5.50;;;4.50;;
14611;SDS011;7392;52.078;11.650;2023-10-13T10:23:06;7.83;;;4.53;;
14611;SDS011;7392;52.078;11.650;2023-10-13T10:25:36;6.67;;;4.50;;
14611;SDS011;7392;52.078;11.650;2023-10-13T10:28:06;5.97;;;4.63;;
14611;SDS011;7392;52.078;11.650;2023-10-13T10:30:35;6.30;;;4.07;;
14611;SDS011;7392;52.078;11.650;2023-10-13T10:33:05;8.27;;;4.10;;
14611;SDS011;7392;52.078;11.650;2023-10-13T10:35:39;9.77;;;4.87;;
14611;SDS011;7392;52.078;11.650;2023-10-13T10:38:10;7.73;;;4.80;;
14611;SDS011;7392;52.078;11.650;2023-10-13T10:40:48;8.00;;;4.37;;
14611;SDS011;7392;52.078;11.650;2023-10-13T10:43:25;8.03;;;4.67;;
14611;SDS011;7392;52.078;11.650;2023-10-13T10:45:59;8.73;;;4.53;;
14611;SDS011;7392;52.078;11.650;2023-10-13T10:48:27;8.07;;;4.40;;
14611;SDS011;7392;52.078;11.650;2023-10-13T10:51:04;9.13;;;5.00;;
14611;SDS011;7392;52.078;11.650;2023-10-13T10:53:41;7.27;;;4.10;;
14611;SDS011;7392;52.078;11.650;2023-10-13T10:56:12;8.57;;;4.33;;
14611;SDS011;7392;52.078;11.650;2023-10-13T10:59:05;6.63;;;4.07;;
14611;SDS011;7392;52.078;11.650;2023-10-13T11:01:42;13.53;;;4.27;;
14611;SDS011;7392;52.078;11.650;2023-10-13T11:04:14;7.40;;;4.37;;
14611;SDS011;7392;52.078;11.650;2023-10-13T11:06:46;8.23;;;3.90;;
14611;SDS011;7392;52.078;11.650;2023-10-13T11:09:15;8.23;;;4.27;;
14611;SDS011;7392;52.078;11.650;2023-10-13T11:12:08;8.57;;;4.10;;
14611;SDS011;7392;52.078;11.650;2023-10-13T11:14:43;7.90;;;3.60;;
14611;SDS011;7392;52.078;11.650;2023-10-13T11:17:19;9.00;;;4.17;;
14611;SDS011;7392;52.078;11.650;2023-10-13T11:19:51;9.13;;;4.20;;
14611;SDS011;7392;52.078;11.650;2023-10-13T11:22:20;11.10;;;3.80;;
14611;SDS011;7392;52.078;11.650;2023-10-13T11:24:59;9.03;;;3.80;;
14611;SDS011;7392;52.078;11.650;2023-10-13T11:27:35;6.33;;;3.70;;
14611;SDS011;7392;52.078;11.650;2023-10-13T11:30:24;8.27;;;3.47;;
14611;SDS011;7392;52.078;11.650;2023-10-13T11:32:57;8.10;;;4.13;;
14611;SDS011;7392;52.078;11.650;2023-10-13T11:35:25;10.30;;;4.20;;
14611;SDS011;7392;52.078;11.650;2023-10-13T11:37:56;10.77;;;3.53;;
14611;SDS011;7392;52.078;11.650;2023-10-13T11:40:38;8.50;;;4.23;;
14611;SDS011;7392;52.078;11.650;2023-10-13T11:43:10;9.53;;;4.53;;
14611;SDS011;7392;52.078;11.650;2023-10-13T11:45:47;9.80;;;4.30;;
14611;SDS011;7392;52.078;11.650;2023-10-13T11:48:44;11.40;;;4.23;;
14611;SDS011;7392;52.078;11.650;2023-10-13T11:51:13;7.83;;;3.73;;
14611;SDS011;7392;52.078;11.650;2023-10-13T11:53:44;9.57;;;4.53;;
14611;SDS011;7392;52.078;11.650;2023-10-13T11:56:14;10.47;;;3.93;;
14611;SDS011;7392;52.078;11.650;2023-10-13T11:58:43;10.40;;;4.80;;
14611;SDS011;7392;52.078;11.650;2023-10-13T12:01:13;11.47;;;4.47;;
14611;SDS011;7392;52.078;11.650;2023-10-13T12:03:48;13.40;;;4.57;;
14611;SDS011;7392;52.078;11.650;2023-10-13T12:06:34;6.10;;;4.30;;
14611;SDS011;7392;52.078;11.650;2023-10-13T12:09:13;12.20;;;5.20;;
14611;SDS011;7392;52.078;11.650;2023-10-13T12:12:05;10.37;;;4.23;;
14611;SDS011;7392;52.078;11.650;2023-10-13T12:14:34;10.87;;;4.17;;
14611;SDS011;7392;52.078;11.650;2023-10-13T12:17:05;12.30;;;4.50;;
14611;SDS011;7392;52.078;11.650;2023-10-13T12:19:37;12.13;;;4.67;;
14611;SDS011;7392;52.078;11.650;2023-10-13T12:22:07;9.33;;;4.20;;
14611;SDS011;7392;52.078;11.650;2023-10-13T12:24:43;12.07;;;4.47;;
14611;SDS011;7392;52.078;11.650;2023-10-13T12:27:19;9.03;;;3.87;;
14611;SDS011;7392;52.078;11.650;2023-10-13T12:29:50;7.13;;;4.03;;
14611;SDS011;7392;52.078;11.650;2023-10-13T12:32:20;9.20;;;4.30;;
14611;SDS011;7392;52.078;11.650;2023-10-13T12:34:48;7.70;;;5.23;;
14611;SDS011;7392;52.078;11.650;2023-10-13T12:37:43;10.83;;;4.30;;
14611;SDS011;7392;52.078;11.650;2023-10-13T12:40:18;11.27;;;5.13;;
14611;SDS011;7392;52.078;11.650;2023-10-13T12:43:05;11.87;;;4.13;;
14611;SDS011;7392;52.078;11.650;2023-10-13T12:45:50;9.93;;;4.40;;
14611;SDS011;7392;52.078;11.650;2023-10-13T12:48:38;10.23;;;4.53;;
14611;SDS011;7392;52.078;11.650;2023-10-13T12:51:30;16.13;;;4.47;;
14611;SDS011;7392;52.078;11.650;2023-10-13T12:54:17;12.80;;;4.33;;
14611;SDS011;7392;52.078;11.650;2023-10-13T12:56:49;12.80;;;4.47;;
14611;SDS011;7392;52.078;11.650;2023-10-13T12:59:23;8.37;;;4.60;;
14611;SDS011;7392;52.078;11.650;2023-10-13T13:01:54;7.70;;;4.13;;
14611;SDS011;7392;52.078;11.650;2023-10-13T13:04:23;9.77;;;5.10;;
14611;SDS011;7392;52.078;11.650;2023-10-13T13:06:54;10.37;;;4.57;;
14611;SDS011;7392;52.078;11.650;2023-10-13T13:09:22;8.43;;;4.27;;
14611;SDS011;7392;52.078;11.650;2023-10-13T13:11:53;11.57;;;4.77;;
14611;SDS011;7392;52.078;11.650;2023-10-13T13:14:23;8.73;;;4.00;;
14611;SDS011;7392;52.078;11.650;2023-10-13T13:16:55;11.73;;;5.20;;
14611;SDS011;7392;52.078;11.650;2023-10-13T13:19:32;9.00;;;4.50;;
14611;SDS011;7392;52.078;11.650;2023-10-13T13:22:03;9.23;;;4.23;;
14611;SDS011;7392;52.078;11.650;2023-10-13T13:24:31;9.07;;;4.80;;
14611;SDS011;7392;52.078;11.650;2023-10-13T13:26:58;8.53;;;4.10;;
14611;SDS011;7392;52.078;11.650;2023-10-13T13:29:29;8.43;;;4.30;;
14611;SDS011;7392;52.078;11.650;2023-10-13T13:31:57;8.60;;;4.73;;
14611;SDS011;7392;52.078;11.650;2023-10-13T13:34:27;9.30;;;4.63;;
14611;SDS011;7392;52.078;11.650;2023-10-13T13:36:57;8.10;;;4.40;;
14611;SDS011;7392;52.078;11.650;2023-10-13T13:39:27;11.13;;;4.93;;
14611;SDS011;7392;52.078;11.650;2023-10-13T13:41:57;9.90;;;4.33;;
14611;SDS011;7392;52.078;11.650;2023-10-13T13:44:24;10.67;;;4.87;;
14611;SDS011;7392;52.078;11.650;2023-10-13T13:47:01;7.40;;;4.30;;
14611;SDS011;7392;52.078;11.650;2023-10-13T13:49:31;10.17;;;5.47;;
14611;SDS011;7392;52.078;11.650;2023-10-13T13:52:08;10.30;;;4.83;;
14611;SDS011;7392;52.078;11.650;2023-10-13T13:54:36;12.50;;;4.63;;
14611;SDS011;7392;52.078;11.650;2023-10-13T13:57:06;11.30;;;5.13;;
14611;SDS011;7392;52.078;11.650;2023-10-13T13:59:34;8.93;;;4.60;;
14611;SDS011;7392;52.078;11.650;2023-10-13T14:02:02;12.07;;;5.07;;
14611;SDS011;7392;52.078;11.650;2023-10-13T14:04:46;11.63;;;4.90;;
14611;SDS011;7392;52.078;11.650;2023-10-13T14:07:19;8.07;;;5.00;;
14611;SDS011;7392;52.078;11.650;2023-10-13T14:09:47;13.37;;;4.80;;
14611;SDS011;7392;52.078;11.650;2023-10-13T14:12:18;9.60;;;5.17;;
14611;SDS011;7392;52.078;11.650;2023-10-13T14:15:08;8.03;;;4.67;;
14611;SDS011;7392;52.078;11.650;2023-10-13T14:17:46;9.90;;;4.70;;
14611;SDS011;7392;52.078;11.650;2023-10-13T14:20:15;7.07;;;4.50;;
14611;SDS011;7392;52.078;11.650;2023-10-13T14:22:46;12.50;;;5.17;;
14611;SDS011;7392;52.078;11.650;2023-10-13T14:25:15;9.57;;;5.20;;
14611;SDS011;7392;52.078;11.650;2023-10-13T14:27:45;9.30;;;5.23;;
14611;SDS011;7392;52.078;11.650;2023-10-13T14:30:12;11.43;;;5.50;;
14611;SDS011;7392;52.078;11.650;2023-10-13T14:32:46;10.57;;;5.43;;
14611;SDS011;7392;52.078;11.650;2023-10-13T14:35:14;11.90;;;4.70;;
14611;SDS011;7392;52.078;11.650;2023-10-13T14:37:42;15.70;;;5.00;;
14611;SDS011;7392;52.078;11.650;2023-10-13T14:40:11;9.07;;;5.10;;
14611;SDS011;7392;52.078;11.650;2023-10-13T14:45:42;7.70;;;4.53;;
14611;SDS011;7392;52.078;11.650;2023-10-13T14:52:25;7.13;;;4.30;;
14611;SDS011;7392;52.078;11.650;2023-10-13T14:55:23;9.17;;;5.03;;
14611;SDS011;7392;52.078;11.650;2023-10-13T15:04:03;8.93;;;4.73;;
14611;SDS011;7392;52.078;11.650;2023-10-13T15:07:40;11.17;;;5.00;;
14611;SDS011;7392;52.078;11.650;2023-10-13T15:17:50;8.67;;;4.80;;
14611;SDS011;7392;52.078;11.650;2023-10-13T15:21:11;7.17;;;4.40;;
14611;SDS011;7392;52.078;11.650;2023-10-13T15:23:40;10.00;;;5.43;;
14611;SDS011;7392;52.078;11.650;2023-10-13T15:30:21;8.67;;;4.40;;
14611;SDS011;7392;52.078;11.650;2023-10-13T15:44:58;9.67;;;4.60;;
14611;SDS011;7392;52.078;11.650;2023-10-13T15:50:42;7.30;;;5.20;;
14611;SDS011;7392;52.078;11.650;2023-10-13T15:53:10;9.83;;;4.60;;
14611;SDS011;7392;52.078;11.650;2023-10-13T15:55:40;12.57;;;4.80;;
14611;SDS011;7392;52.078;11.650;2023-10-13T15:58:12;9.97;;;5.13;;
14611;SDS011;7392;52.078;11.650;2023-10-13T16:00:40;11.40;;;5.67;;
14611;SDS011;7392;52.078;11.650;2023-10-13T16:03:08;7.43;;;4.43;;
14611;SDS011;7392;52.078;11.650;2023-10-13T16:05:39;8.77;;;4.77;;
14611;SDS011;7392;52.078;11.650;2023-10-13T16:08:11;8.10;;;4.97;;
14611;SDS011;7392;52.078;11.650;2023-10-13T16:10:40;10.03;;;4.93;;
14611;SDS011;7392;52.078;11.650;2023-10-13T16:13:08;8.30;;;4.60;;
14611;SDS011;7392;52.078;11.650;2023-10-13T16:15:43;10.63;;;5.13;;
14611;SDS011;7392;52.078;11.650;2023-10-13T16:18:14;10.53;;;5.10;;
14611;SDS011;7392;52.078;11.650;2023-10-13T16:20:48;8.37;;;5.10;;
14611;SDS011;7392;52.078;11.650;2023-10-13T16:23:18;15.03;;;4.80;;
14611;SDS011;7392;52.078;11.650;2023-10-13T16:25:46;10.43;;;4.97;;
14611;SDS011;7392;52.078;11.650;2023-10-13T16:28:15;8.93;;;4.80;;